EJU81AT EDDW-LIPZ
Flight info
| Callsign | EJU81AT |
|---|---|
| Flight time | 1h 23m |
| Altitude | 37000 |
| Route | WIMCI1M WIMCI Y804 PIROT N850 LARBU DCT WERRA P605 ELNAT DCT DINKU M867 XERUM DCT OLPIX DCT BASOG BASOG2E |
| Aircraft | A319/M-SDE3FGHIRWY/LB1 |
Departure
| Time | 2026-05-06 17:12 |
|---|---|
| Airport | Bremen Airport (EDDW) |
Arrival
| Time | 2026-05-06 18:36 |
|---|---|
| Airport | Venice Marco Polo Airport (LIPZ) |
| Time | Latitude | Longitude | Altitude | Speed | Heading |
|---|---|---|---|---|---|
| 2026-05-06 16:42 | 53.05254 | 8.78237 | 22 ft | 0 kts | 11° |
| 2026-05-06 17:05 | 53.05247 | 8.78235 | 22 ft | 4 kts | 9° |
| 2026-05-06 17:05 | 53.05221 | 8.78230 | 22 ft | 4 kts | 359° |
| 2026-05-06 17:06 | 53.05195 | 8.78235 | 22 ft | 4 kts | 333° |
| 2026-05-06 17:06 | 53.05180 | 8.78258 | 22 ft | 1 kts | 284° |
| 2026-05-06 17:06 | 53.05179 | 8.78265 | 23 ft | 1 kts | 284° |
| 2026-05-06 17:06 | 53.05179 | 8.78266 | 23 ft | 0 kts | 284° |
| 2026-05-06 17:08 | 53.05186 | 8.78219 | 22 ft | 9 kts | 284° |
| 2026-05-06 17:09 | 53.05194 | 8.78127 | 22 ft | 7 kts | 265° |
| 2026-05-06 17:09 | 53.05188 | 8.78073 | 22 ft | 3 kts | 257° |
| 2026-05-06 17:09 | 53.05179 | 8.78033 | 22 ft | 6 kts | 245° |
| 2026-05-06 17:09 | 53.05142 | 8.77939 | 22 ft | 13 kts | 232° |
| 2026-05-06 17:10 | 53.05087 | 8.77837 | 22 ft | 10 kts | 227° |
| 2026-05-06 17:10 | 53.05042 | 8.77755 | 22 ft | 10 kts | 227° |
| 2026-05-06 17:10 | 53.04993 | 8.77667 | 22 ft | 11 kts | 227° |
| 2026-05-06 17:10 | 53.04938 | 8.77571 | 22 ft | 12 kts | 223° |
| 2026-05-06 17:11 | 53.04865 | 8.77492 | 22 ft | 14 kts | 204° |
| 2026-05-06 17:11 | 53.04773 | 8.77455 | 23 ft | 13 kts | 188° |
| 2026-05-06 17:11 | 53.04678 | 8.77474 | 23 ft | 15 kts | 142° |
| 2026-05-06 17:11 | 53.04666 | 8.77735 | 21 ft | 49 kts | 86° |
| 2026-05-06 17:12 | 53.04690 | 8.78716 | 22 ft | 118 kts | 87° |
| 2026-05-06 17:12 | 53.04744 | 8.80337 | 281 ft | 146 kts | 84° |
| 2026-05-06 17:12 | 53.04767 | 8.81989 | 1015 ft | 141 kts | 85° |
| 2026-05-06 17:12 | 53.04790 | 8.83654 | 1655 ft | 151 kts | 85° |
| 2026-05-06 17:13 | 53.04812 | 8.85501 | 2142 ft | 170 kts | 91° |
| 2026-05-06 17:13 | 53.04319 | 8.87455 | 2515 ft | 197 kts | 123° |
| 2026-05-06 17:13 | 53.03420 | 8.89305 | 2890 ft | 224 kts | 137° |
| 2026-05-06 17:13 | 53.02038 | 8.90792 | 3435 ft | 248 kts | 152° |
| 2026-05-06 17:14 | 53.00301 | 8.91489 | 4022 ft | 267 kts | 176° |
| 2026-05-06 17:14 | 52.98431 | 8.91634 | 5106 ft | 268 kts | 177° |
| 2026-05-06 17:14 | 52.96571 | 8.91778 | 6012 ft | 273 kts | 178° |
| 2026-05-06 17:14 | 52.94651 | 8.91931 | 6950 ft | 275 kts | 178° |
| 2026-05-06 17:15 | 52.92720 | 8.92090 | 7858 ft | 279 kts | 178° |
| 2026-05-06 17:15 | 52.90792 | 8.92254 | 8757 ft | 281 kts | 179° |
| 2026-05-06 17:15 | 52.88817 | 8.92426 | 9678 ft | 285 kts | 178° |
| 2026-05-06 17:15 | 52.86814 | 8.92604 | 10253 ft | 299 kts | 179° |
| 2026-05-06 17:16 | 52.84646 | 8.92798 | 10521 ft | 323 kts | 178° |
| 2026-05-06 17:16 | 52.82334 | 8.93008 | 10981 ft | 337 kts | 179° |
| 2026-05-06 17:16 | 52.79985 | 8.93219 | 11698 ft | 343 kts | 178° |
| 2026-05-06 17:16 | 52.77584 | 8.93430 | 12437 ft | 347 kts | 179° |
| 2026-05-06 17:17 | 52.75160 | 8.93801 | 13160 ft | 354 kts | 169° |
| 2026-05-06 17:17 | 52.72779 | 8.95034 | 13856 ft | 359 kts | 162° |
| 2026-05-06 17:17 | 52.70427 | 8.96387 | 14489 ft | 363 kts | 162° |
| 2026-05-06 17:17 | 52.68031 | 8.97748 | 15148 ft | 366 kts | 163° |
| 2026-05-06 17:18 | 52.65580 | 8.99031 | 15816 ft | 369 kts | 164° |
| 2026-05-06 17:18 | 52.63136 | 9.00239 | 16489 ft | 372 kts | 165° |
| 2026-05-06 17:18 | 52.60628 | 9.01450 | 17153 ft | 376 kts | 165° |
| 2026-05-06 17:18 | 52.58093 | 9.02673 | 17810 ft | 380 kts | 165° |
| 2026-05-06 17:19 | 52.55574 | 9.03898 | 18465 ft | 383 kts | 165° |
| 2026-05-06 17:19 | 52.52994 | 9.05160 | 19074 ft | 386 kts | 165° |
| 2026-05-06 17:19 | 52.50424 | 9.06420 | 19678 ft | 389 kts | 166° |
| 2026-05-06 17:19 | 52.47808 | 9.07707 | 20272 ft | 392 kts | 166° |
| 2026-05-06 17:20 | 52.45204 | 9.08989 | 20864 ft | 395 kts | 166° |
| 2026-05-06 17:20 | 52.42561 | 9.10291 | 21449 ft | 398 kts | 166° |
| 2026-05-06 17:20 | 52.39895 | 9.11604 | 21986 ft | 401 kts | 166° |
| 2026-05-06 17:20 | 52.37202 | 9.12927 | 22516 ft | 404 kts | 166° |
| 2026-05-06 17:21 | 52.34523 | 9.14243 | 23046 ft | 407 kts | 166° |
| 2026-05-06 17:21 | 52.31786 | 9.15586 | 23541 ft | 410 kts | 167° |
| 2026-05-06 17:21 | 52.29066 | 9.16916 | 23965 ft | 413 kts | 167° |
| 2026-05-06 17:21 | 52.26304 | 9.18264 | 24394 ft | 415 kts | 167° |
| 2026-05-06 17:22 | 52.23512 | 9.19623 | 24831 ft | 417 kts | 167° |
| 2026-05-06 17:22 | 52.20753 | 9.20965 | 25247 ft | 419 kts | 167° |
| 2026-05-06 17:22 | 52.17945 | 9.22330 | 25675 ft | 421 kts | 167° |
| 2026-05-06 17:22 | 52.15117 | 9.23704 | 26081 ft | 423 kts | 167° |
| 2026-05-06 17:23 | 52.12321 | 9.25063 | 26505 ft | 425 kts | 167° |
| 2026-05-06 17:23 | 52.09463 | 9.26446 | 26922 ft | 427 kts | 167° |
| 2026-05-06 17:23 | 52.06599 | 9.27829 | 27345 ft | 429 kts | 167° |
| 2026-05-06 17:23 | 52.03764 | 9.29200 | 27744 ft | 431 kts | 167° |
| 2026-05-06 17:24 | 52.00865 | 9.30602 | 28173 ft | 433 kts | 167° |
| 2026-05-06 17:24 | 51.97974 | 9.31999 | 28570 ft | 435 kts | 167° |
| 2026-05-06 17:24 | 51.95051 | 9.33405 | 28993 ft | 437 kts | 167° |
| 2026-05-06 17:24 | 51.92164 | 9.34790 | 29378 ft | 439 kts | 167° |
| 2026-05-06 17:25 | 51.89218 | 9.36200 | 29758 ft | 441 kts | 167° |
| 2026-05-06 17:25 | 51.86273 | 9.37613 | 30077 ft | 442 kts | 167° |
| 2026-05-06 17:25 | 51.83310 | 9.39038 | 30383 ft | 444 kts | 167° |
| 2026-05-06 17:25 | 51.80374 | 9.40447 | 30672 ft | 446 kts | 167° |
| 2026-05-06 17:26 | 51.77391 | 9.41871 | 31021 ft | 446 kts | 167° |
| 2026-05-06 17:26 | 51.74417 | 9.43286 | 31445 ft | 445 kts | 167° |
| 2026-05-06 17:26 | 51.71436 | 9.44704 | 31878 ft | 443 kts | 167° |
| 2026-05-06 17:26 | 51.68504 | 9.46097 | 32297 ft | 442 kts | 168° |
| 2026-05-06 17:27 | 51.65552 | 9.47500 | 32708 ft | 441 kts | 168° |
| 2026-05-06 17:27 | 51.62643 | 9.48885 | 33224 ft | 437 kts | 168° |
| 2026-05-06 17:27 | 51.59729 | 9.50267 | 33699 ft | 434 kts | 168° |
| 2026-05-06 17:27 | 51.56813 | 9.51643 | 34091 ft | 433 kts | 168° |
| 2026-05-06 17:28 | 51.53916 | 9.53006 | 34422 ft | 433 kts | 168° |
| 2026-05-06 17:28 | 51.51058 | 9.54347 | 34722 ft | 433 kts | 168° |
| 2026-05-06 17:28 | 51.48165 | 9.55701 | 35018 ft | 433 kts | 168° |
| 2026-05-06 17:28 | 51.45264 | 9.57061 | 35308 ft | 433 kts | 168° |
| 2026-05-06 17:29 | 51.42365 | 9.58429 | 35580 ft | 433 kts | 167° |
| 2026-05-06 17:29 | 51.39460 | 9.59825 | 35847 ft | 433 kts | 167° |
| 2026-05-06 17:29 | 51.36609 | 9.61217 | 36101 ft | 433 kts | 167° |
| 2026-05-06 17:29 | 51.33720 | 9.62634 | 36378 ft | 433 kts | 167° |
| 2026-05-06 17:30 | 51.30834 | 9.64049 | 36640 ft | 433 kts | 167° |
| 2026-05-06 17:30 | 51.27973 | 9.65445 | 36773 ft | 433 kts | 167° |
| 2026-05-06 17:30 | 51.25094 | 9.66847 | 36811 ft | 433 kts | 167° |
| 2026-05-06 17:31 | 51.19338 | 9.69600 | 36813 ft | 432 kts | 168° |
| 2026-05-06 17:31 | 51.13499 | 9.71865 | 36801 ft | 428 kts | 172° |
| 2026-05-06 17:32 | 51.07685 | 9.73829 | 36802 ft | 428 kts | 172° |
| 2026-05-06 17:32 | 51.01864 | 9.75844 | 36798 ft | 428 kts | 171° |
| 2026-05-06 17:33 | 50.96075 | 9.77953 | 36806 ft | 429 kts | 171° |
| 2026-05-06 17:33 | 50.90242 | 9.80108 | 36805 ft | 429 kts | 171° |
| 2026-05-06 17:34 | 50.84438 | 9.82217 | 36809 ft | 428 kts | 171° |
| 2026-05-06 17:34 | 50.78651 | 9.84301 | 36813 ft | 428 kts | 171° |
| 2026-05-06 17:35 | 50.72818 | 9.86389 | 36796 ft | 428 kts | 171° |
| 2026-05-06 17:35 | 50.67027 | 9.88458 | 36807 ft | 427 kts | 171° |
| 2026-05-06 17:36 | 50.58349 | 9.91559 | 36809 ft | 427 kts | 171° |
| 2026-05-06 17:36 | 50.52576 | 9.93625 | 36807 ft | 426 kts | 171° |
| 2026-05-06 17:37 | 50.46772 | 9.95687 | 36809 ft | 426 kts | 171° |
| 2026-05-06 17:37 | 50.41003 | 9.97731 | 36805 ft | 426 kts | 171° |
| 2026-05-06 17:38 | 50.35238 | 9.99779 | 36807 ft | 425 kts | 171° |
| 2026-05-06 17:38 | 50.29468 | 10.01815 | 36804 ft | 425 kts | 171° |
| 2026-05-06 17:39 | 50.23681 | 10.03849 | 36809 ft | 425 kts | 171° |
| 2026-05-06 17:39 | 50.17891 | 10.05879 | 36800 ft | 425 kts | 171° |
| 2026-05-06 17:40 | 50.12152 | 10.07900 | 36805 ft | 425 kts | 171° |
| 2026-05-06 17:40 | 50.06394 | 10.09905 | 36789 ft | 424 kts | 171° |
| 2026-05-06 17:41 | 50.00647 | 10.11905 | 36799 ft | 424 kts | 171° |
| 2026-05-06 17:41 | 49.94870 | 10.13920 | 36787 ft | 424 kts | 171° |
| 2026-05-06 17:42 | 49.89113 | 10.15919 | 36799 ft | 424 kts | 171° |
| 2026-05-06 17:42 | 49.83360 | 10.17909 | 36797 ft | 424 kts | 171° |
| 2026-05-06 17:43 | 49.77609 | 10.19892 | 36809 ft | 424 kts | 171° |
| 2026-05-06 17:43 | 49.71829 | 10.21878 | 36796 ft | 425 kts | 171° |
| 2026-05-06 17:44 | 49.66073 | 10.23854 | 36792 ft | 426 kts | 171° |
| 2026-05-06 17:44 | 49.60253 | 10.25858 | 36790 ft | 428 kts | 171° |
| 2026-05-06 17:45 | 49.54466 | 10.27829 | 36792 ft | 429 kts | 171° |
| 2026-05-06 17:45 | 49.48611 | 10.29830 | 36797 ft | 429 kts | 171° |
| 2026-05-06 17:46 | 49.42785 | 10.31822 | 36785 ft | 429 kts | 171° |
| 2026-05-06 17:46 | 49.36973 | 10.33791 | 36800 ft | 429 kts | 171° |
| 2026-05-06 17:47 | 49.31157 | 10.35755 | 36814 ft | 429 kts | 171° |
| 2026-05-06 17:47 | 49.25323 | 10.37780 | 36842 ft | 430 kts | 167° |
| 2026-05-06 17:48 | 49.19884 | 10.41706 | 36864 ft | 437 kts | 153° |
| 2026-05-06 17:48 | 49.14686 | 10.46458 | 36863 ft | 437 kts | 154° |
| 2026-05-06 17:49 | 49.09435 | 10.51220 | 36871 ft | 437 kts | 154° |
| 2026-05-06 17:49 | 49.04219 | 10.55951 | 36870 ft | 437 kts | 154° |
| 2026-05-06 17:50 | 48.98998 | 10.60673 | 36841 ft | 437 kts | 154° |
| 2026-05-06 17:50 | 48.93784 | 10.65383 | 36847 ft | 437 kts | 154° |
| 2026-05-06 17:51 | 48.88547 | 10.70106 | 36852 ft | 437 kts | 154° |
| 2026-05-06 17:51 | 48.83301 | 10.74806 | 36844 ft | 436 kts | 154° |
| 2026-05-06 17:52 | 48.77841 | 10.78515 | 36832 ft | 429 kts | 165° |
| 2026-05-06 17:52 | 48.72185 | 10.81504 | 36837 ft | 429 kts | 165° |
| 2026-05-06 17:53 | 48.66563 | 10.84499 | 36832 ft | 429 kts | 165° |
| 2026-05-06 17:53 | 48.60911 | 10.87507 | 36836 ft | 430 kts | 165° |
| 2026-05-06 17:54 | 48.55288 | 10.90486 | 36847 ft | 429 kts | 165° |
| 2026-05-06 17:54 | 48.49680 | 10.93438 | 36855 ft | 428 kts | 165° |
| 2026-05-06 17:55 | 48.44050 | 10.96398 | 36853 ft | 427 kts | 165° |
| 2026-05-06 17:55 | 48.38467 | 10.99320 | 36852 ft | 427 kts | 165° |
| 2026-05-06 17:56 | 48.33755 | 11.01783 | 36855 ft | 427 kts | 165° |
| 2026-05-06 17:56 | 48.28173 | 11.04707 | 36853 ft | 426 kts | 165° |
| 2026-05-06 17:57 | 48.22565 | 11.07625 | 36851 ft | 426 kts | 165° |
| 2026-05-06 17:57 | 48.16979 | 11.10534 | 36853 ft | 426 kts | 165° |
| 2026-05-06 17:58 | 48.11365 | 11.13456 | 36852 ft | 426 kts | 165° |
| 2026-05-06 17:58 | 48.05806 | 11.16332 | 36822 ft | 426 kts | 166° |
| 2026-05-06 17:59 | 48.00209 | 11.19226 | 36848 ft | 426 kts | 166° |
| 2026-05-06 17:59 | 47.94569 | 11.22125 | 36857 ft | 426 kts | 166° |
| 2026-05-06 18:00 | 47.88982 | 11.24993 | 36861 ft | 427 kts | 166° |
| 2026-05-06 18:00 | 47.83381 | 11.27877 | 36847 ft | 427 kts | 166° |
| 2026-05-06 18:01 | 47.77752 | 11.30764 | 36847 ft | 427 kts | 166° |
| 2026-05-06 18:01 | 47.72161 | 11.33630 | 36836 ft | 428 kts | 166° |
| 2026-05-06 18:02 | 47.66563 | 11.36483 | 36837 ft | 428 kts | 166° |
| 2026-05-06 18:02 | 47.60941 | 11.39324 | 36798 ft | 428 kts | 166° |
| 2026-05-06 18:03 | 47.55283 | 11.42184 | 36809 ft | 427 kts | 166° |
| 2026-05-06 18:03 | 47.49677 | 11.45021 | 36830 ft | 427 kts | 166° |
| 2026-05-06 18:04 | 47.44078 | 11.47844 | 36832 ft | 427 kts | 166° |
| 2026-05-06 18:04 | 47.38447 | 11.50683 | 36819 ft | 428 kts | 166° |
| 2026-05-06 18:05 | 47.32813 | 11.53518 | 36796 ft | 428 kts | 166° |
| 2026-05-06 18:05 | 47.27165 | 11.56351 | 36796 ft | 428 kts | 166° |
| 2026-05-06 18:06 | 47.21504 | 11.59189 | 36803 ft | 429 kts | 166° |
| 2026-05-06 18:06 | 47.15848 | 11.62007 | 36770 ft | 430 kts | 166° |
| 2026-05-06 18:07 | 47.10194 | 11.64828 | 36793 ft | 429 kts | 166° |
| 2026-05-06 18:07 | 47.04553 | 11.67622 | 36809 ft | 429 kts | 166° |
| 2026-05-06 18:08 | 46.98873 | 11.70372 | 36819 ft | 430 kts | 168° |
| 2026-05-06 18:08 | 46.93178 | 11.72886 | 36834 ft | 429 kts | 169° |
| 2026-05-06 18:09 | 46.87433 | 11.75338 | 36839 ft | 429 kts | 169° |
| 2026-05-06 18:09 | 46.81718 | 11.77814 | 36849 ft | 429 kts | 168° |
| 2026-05-06 18:10 | 46.75995 | 11.80328 | 36841 ft | 429 kts | 168° |
| 2026-05-06 18:10 | 46.70264 | 11.82837 | 36845 ft | 429 kts | 168° |
| 2026-05-06 18:11 | 46.64549 | 11.85324 | 36860 ft | 430 kts | 168° |
| 2026-05-06 18:11 | 46.58829 | 11.87808 | 36881 ft | 430 kts | 168° |
| 2026-05-06 18:12 | 46.53113 | 11.90295 | 36891 ft | 430 kts | 169° |
| 2026-05-06 18:12 | 46.47359 | 11.92789 | 36906 ft | 430 kts | 169° |
| 2026-05-06 18:13 | 46.41612 | 11.95273 | 36916 ft | 430 kts | 169° |
| 2026-05-06 18:13 | 46.35900 | 11.97731 | 36913 ft | 429 kts | 169° |
| 2026-05-06 18:14 | 46.30193 | 12.00186 | 36913 ft | 429 kts | 169° |
| 2026-05-06 18:14 | 46.24421 | 12.02656 | 35998 ft | 436 kts | 169° |
| 2026-05-06 18:15 | 46.21518 | 12.03896 | 35378 ft | 432 kts | 170° |
| 2026-05-06 18:15 | 46.18665 | 12.05119 | 34731 ft | 429 kts | 170° |
| 2026-05-06 18:15 | 46.15807 | 12.06345 | 34085 ft | 427 kts | 171° |
| 2026-05-06 18:15 | 46.12951 | 12.07573 | 33262 ft | 426 kts | 171° |
| 2026-05-06 18:16 | 46.10102 | 12.08793 | 32351 ft | 426 kts | 171° |
| 2026-05-06 18:16 | 46.07276 | 12.09996 | 31396 ft | 428 kts | 171° |
| 2026-05-06 18:16 | 46.04409 | 12.11211 | 30178 ft | 430 kts | 171° |
| 2026-05-06 18:16 | 46.01513 | 12.12432 | 28980 ft | 434 kts | 171° |
| 2026-05-06 18:17 | 45.98684 | 12.13638 | 28491 ft | 424 kts | 171° |
| 2026-05-06 18:17 | 45.95867 | 12.14846 | 27936 ft | 418 kts | 171° |
| 2026-05-06 18:17 | 45.93076 | 12.16038 | 27410 ft | 414 kts | 171° |
| 2026-05-06 18:17 | 45.90351 | 12.17195 | 26891 ft | 410 kts | 171° |
| 2026-05-06 18:18 | 45.87611 | 12.18350 | 26381 ft | 408 kts | 171° |
| 2026-05-06 18:18 | 45.84922 | 12.19480 | 25935 ft | 405 kts | 170° |
| 2026-05-06 18:18 | 45.82201 | 12.20624 | 25554 ft | 404 kts | 170° |
| 2026-05-06 18:18 | 45.79506 | 12.21755 | 25189 ft | 402 kts | 170° |
| 2026-05-06 18:19 | 45.76820 | 12.22883 | 24929 ft | 401 kts | 170° |
| 2026-05-06 18:19 | 45.74167 | 12.23995 | 24910 ft | 401 kts | 170° |
| 2026-05-06 18:19 | 45.71468 | 12.25122 | 24910 ft | 403 kts | 169° |
| 2026-05-06 18:19 | 45.68758 | 12.26252 | 24886 ft | 406 kts | 169° |
| 2026-05-06 18:20 | 45.66029 | 12.27369 | 24892 ft | 404 kts | 172° |
| 2026-05-06 18:20 | 45.63333 | 12.27786 | 24311 ft | 386 kts | 188° |
| 2026-05-06 18:20 | 45.60761 | 12.26959 | 23503 ft | 375 kts | 206° |
| 2026-05-06 18:20 | 45.58611 | 12.24977 | 22579 ft | 369 kts | 222° |
| 2026-05-06 18:21 | 45.56742 | 12.22472 | 21687 ft | 368 kts | 224° |
| 2026-05-06 18:21 | 45.54900 | 12.19943 | 20599 ft | 369 kts | 224° |
| 2026-05-06 18:21 | 45.53009 | 12.17340 | 19550 ft | 380 kts | 224° |
| 2026-05-06 18:21 | 45.51105 | 12.14719 | 18700 ft | 380 kts | 224° |
| 2026-05-06 18:22 | 45.49216 | 12.12146 | 17930 ft | 374 kts | 224° |
| 2026-05-06 18:22 | 45.47361 | 12.09613 | 16906 ft | 369 kts | 224° |
| 2026-05-06 18:22 | 45.45525 | 12.07074 | 15904 ft | 365 kts | 224° |
| 2026-05-06 18:22 | 45.43717 | 12.04534 | 14931 ft | 361 kts | 224° |
| 2026-05-06 18:23 | 45.41967 | 12.02036 | 13982 ft | 357 kts | 224° |
| 2026-05-06 18:23 | 45.40226 | 11.99518 | 12936 ft | 353 kts | 224° |
| 2026-05-06 18:23 | 45.38531 | 11.97076 | 12022 ft | 346 kts | 224° |
| 2026-05-06 18:23 | 45.36879 | 11.94711 | 11617 ft | 326 kts | 224° |
| 2026-05-06 18:24 | 45.35314 | 11.92479 | 11298 ft | 306 kts | 224° |
| 2026-05-06 18:24 | 45.33882 | 11.90441 | 11172 ft | 284 kts | 224° |
| 2026-05-06 18:24 | 45.32532 | 11.88524 | 11041 ft | 264 kts | 224° |
| 2026-05-06 18:24 | 45.31275 | 11.86740 | 10927 ft | 246 kts | 224° |
| 2026-05-06 18:25 | 45.30094 | 11.85066 | 10623 ft | 236 kts | 224° |
| 2026-05-06 18:25 | 45.28949 | 11.83449 | 10186 ft | 234 kts | 224° |
| 2026-05-06 18:25 | 45.27794 | 11.81829 | 9701 ft | 232 kts | 224° |
| 2026-05-06 18:25 | 45.26638 | 11.80218 | 9160 ft | 231 kts | 224° |
| 2026-05-06 18:26 | 45.25473 | 11.78642 | 8657 ft | 230 kts | 219° |
| 2026-05-06 18:26 | 45.24009 | 11.77769 | 8139 ft | 232 kts | 187° |
| 2026-05-06 18:26 | 45.22441 | 11.78159 | 7631 ft | 238 kts | 156° |
| 2026-05-06 18:26 | 45.21194 | 11.79749 | 7156 ft | 248 kts | 125° |
| 2026-05-06 18:27 | 45.20454 | 11.81980 | 6814 ft | 251 kts | 115° |
| 2026-05-06 18:27 | 45.19812 | 11.84285 | 6503 ft | 250 kts | 114° |
| 2026-05-06 18:27 | 45.19233 | 11.86580 | 6182 ft | 251 kts | 104° |
| 2026-05-06 18:27 | 45.19296 | 11.89052 | 5860 ft | 252 kts | 78° |
| 2026-05-06 18:28 | 45.19755 | 11.91451 | 5531 ft | 251 kts | 75° |
| 2026-05-06 18:28 | 45.20249 | 11.93780 | 5230 ft | 248 kts | 74° |
| 2026-05-06 18:28 | 45.20750 | 11.96117 | 4924 ft | 246 kts | 74° |
| 2026-05-06 18:28 | 45.21451 | 11.98326 | 4613 ft | 245 kts | 50° |
| 2026-05-06 18:29 | 45.22739 | 11.99885 | 4287 ft | 244 kts | 38° |
| 2026-05-06 18:29 | 45.24042 | 12.01399 | 3968 ft | 243 kts | 41° |
| 2026-05-06 18:29 | 45.25307 | 12.02986 | 3713 ft | 242 kts | 43° |
| 2026-05-06 18:29 | 45.26561 | 12.04583 | 3457 ft | 243 kts | 42° |
| 2026-05-06 18:30 | 45.27825 | 12.06191 | 3210 ft | 244 kts | 42° |
| 2026-05-06 18:30 | 45.29074 | 12.07779 | 3050 ft | 243 kts | 42° |
| 2026-05-06 18:30 | 45.30337 | 12.09385 | 3021 ft | 243 kts | 42° |
| 2026-05-06 18:30 | 45.31603 | 12.10997 | 3026 ft | 244 kts | 42° |
| 2026-05-06 18:31 | 45.32869 | 12.12608 | 3029 ft | 243 kts | 42° |
| 2026-05-06 18:31 | 45.34114 | 12.14195 | 3028 ft | 243 kts | 42° |
| 2026-05-06 18:31 | 45.35381 | 12.15810 | 3022 ft | 243 kts | 42° |
| 2026-05-06 18:31 | 45.36626 | 12.17398 | 3012 ft | 233 kts | 42° |
| 2026-05-06 18:32 | 45.37795 | 12.18890 | 2969 ft | 219 kts | 43° |
| 2026-05-06 18:32 | 45.38906 | 12.20310 | 2757 ft | 216 kts | 43° |
| 2026-05-06 18:32 | 45.40022 | 12.21737 | 2501 ft | 212 kts | 43° |
| 2026-05-06 18:32 | 45.41107 | 12.23124 | 2202 ft | 204 kts | 43° |
| 2026-05-06 18:33 | 45.42137 | 12.24442 | 1936 ft | 194 kts | 43° |
| 2026-05-06 18:33 | 45.43103 | 12.25679 | 1697 ft | 180 kts | 42° |
| 2026-05-06 18:33 | 45.43978 | 12.26794 | 1475 ft | 160 kts | 42° |
| 2026-05-06 18:33 | 45.44774 | 12.27802 | 1205 ft | 148 kts | 43° |
| 2026-05-06 18:34 | 45.45517 | 12.28760 | 1001 ft | 141 kts | 43° |
| 2026-05-06 18:34 | 45.46232 | 12.29680 | 830 ft | 136 kts | 42° |
| 2026-05-06 18:34 | 45.46917 | 12.30570 | 645 ft | 134 kts | 41° |
| 2026-05-06 18:34 | 45.47609 | 12.31460 | 486 ft | 133 kts | 41° |
| 2026-05-06 18:35 | 45.48307 | 12.32344 | 343 ft | 134 kts | 40° |
| 2026-05-06 18:35 | 45.49006 | 12.33245 | 165 ft | 135 kts | 43° |
| 2026-05-06 18:35 | 45.49694 | 12.34135 | 18 ft | 133 kts | 40° |
| 2026-05-06 18:35 | 45.50289 | 12.34904 | 15 ft | 92 kts | 42° |
| 2026-05-06 18:36 | 45.50623 | 12.35326 | 15 ft | 29 kts | 41° |
| 2026-05-06 18:36 | 45.50734 | 12.35392 | 16 ft | 17 kts | 6° |
| 2026-05-06 18:36 | 45.50835 | 12.35391 | 16 ft | 7 kts | 357° |
| 2026-05-06 18:36 | 45.50884 | 12.35383 | 17 ft | 7 kts | 355° |
| 2026-05-06 18:37 | 45.50950 | 12.35369 | 18 ft | 10 kts | 339° |
| 2026-05-06 18:37 | 45.50973 | 12.35316 | 17 ft | 10 kts | 269° |
| 2026-05-06 18:37 | 45.50933 | 12.35177 | 16 ft | 12 kts | 221° |
| 2026-05-06 18:37 | 45.50869 | 12.35094 | 16 ft | 13 kts | 221° |
| 2026-05-06 18:38 | 45.50800 | 12.35006 | 16 ft | 14 kts | 221° |
| 2026-05-06 18:38 | 45.50723 | 12.34908 | 16 ft | 15 kts | 221° |
| 2026-05-06 18:38 | 45.50643 | 12.34802 | 16 ft | 16 kts | 223° |
| 2026-05-06 18:38 | 45.50557 | 12.34693 | 16 ft | 17 kts | 221° |
| 2026-05-06 18:39 | 45.50467 | 12.34577 | 16 ft | 18 kts | 222° |
| 2026-05-06 18:39 | 45.50384 | 12.34469 | 16 ft | 14 kts | 222° |
| 2026-05-06 18:39 | 45.50359 | 12.34372 | 16 ft | 10 kts | 286° |
| 2026-05-06 18:40 | 45.50426 | 12.34287 | 16 ft | 7 kts | 266° |
| 2026-05-06 18:40 | 45.50424 | 12.34216 | 16 ft | 5 kts | 266° |
| 2026-05-06 18:40 | 45.50424 | 12.34214 | 16 ft | 0 kts | 266° |